Franzen, Wisconsin
Current Conditions -  °F | °C
As of 2:15 PM on Monday 24 Nov 2014 (Local Time) from KAIG Reporting Station
Moderate Snow Moderate Snow  
Wind Chill: 19°   Ceiling: 900
Heat Index: 31°   Visibility: 0.5mi
Dew Point: 30°   Wind: 18mph
Humidity: 97%   Direction: 350°N
Pressure: 29.18"   Gusts: NA
Location:  44.8179°N, 89.172°W
Report Text: KAIG 242015Z AUTO 35016KT 1/2SM SN OVC009 M01/M01 A2918 RMK AO2 T10081012
Loading
Personal Weather Stations






























Interactive Weather Map New forecast layout! Learn more

10-Day Weather Forecast

Advertisements
Track Severe Weather on mobile